Time;durP1;ratioP1;P1;durP2;ratioP2;P2;SDS_P1;SDS_P2;PMS_P1;PMS_P2;Temp;Humidity;BMP_temperature;BMP_pressure;BME280_temperature;BME280_humidity;BME280_pressure;Samples;Min_cycle;Max_cycle;Signal;HPM_P1;HPM_P2
2023/10/24 00:00:14;;;;;;;;;;;14.10;72.50;;;;;;5094468;28;20022;-69
2023/10/24 00:02:39;;;;;;;;;;;14.10;72.50;;;;;;5094476;28;19977;-68
2023/10/24 00:05:05;;;;;;;;;;;14.10;72.50;;;;;;5094738;28;19974;-68
2023/10/24 00:07:31;;;;;;;;;;;14.10;72.60;;;;;;5094706;28;19919;-68
2023/10/24 00:09:56;;;;;;;;;;;14.10;72.60;;;;;;5094443;28;20378;-68
2023/10/24 00:12:22;;;;;;;;;;;14.10;72.60;;;;;;5112696;28;19920;-68
2023/10/24 00:14:47;;;;;;;;;;;14.10;72.70;;;;;;5112624;28;19927;-68
2023/10/24 00:17:13;;;;;;;;;;;14.10;72.70;;;;;;5094459;28;19923;-68
2023/10/24 00:19:38;;;;;;;;;;;14.10;72.80;;;;;;5094320;28;19981;-69
2023/10/24 00:22:04;;;;;;;;;;;14.10;72.80;;;;;;5094425;28;19923;-68
2023/10/24 00:24:29;;;;;;;;;;;14.10;72.90;;;;;;5112673;28;19920;-68
2023/10/24 00:26:57;;;;;;;;;;;14.10;72.90;;;;;;5094510;28;20242;-67
2023/10/24 00:29:22;;;;;;;;;;;14.10;72.90;;;;;;5077731;28;20279;-68
2023/10/24 00:31:48;;;;;;;;;;;14.10;72.90;;;;;;5128767;28;19927;-69
2023/10/24 00:34:13;;;;;;;;;;;14.10;73.00;;;;;;5112410;28;19969;-68
2023/10/24 00:36:40;;;;;;;;;;;14.10;73.00;;;;;;5094204;28;20422;-68
2023/10/24 00:39:05;;;;;;;;;;;14.10;73.10;;;;;;5094350;28;19952;-68
2023/10/24 00:41:31;;;;;;;;;;;14.10;73.10;;;;;;5095707;28;20425;-68
2023/10/24 00:43:56;;;;;;;;;;;14.10;73.00;;;;;;5097853;28;20001;-68
2023/10/24 00:46:22;;;;;;;;;;;14.10;73.00;;;;;;5116332;28;19919;-68
2023/10/24 00:48:48;;;;;;;;;;;14.10;73.00;;;;;;5097731;28;19927;-69
2023/10/24 00:51:13;;;;;;;;;;;14.10;73.00;;;;;;5116139;28;19920;-68
2023/10/24 00:53:39;;;;;;;;;;;14.10;73.00;;;;;;5097692;28;19962;-68
2023/10/24 00:56:05;;;;;;;;;;;14.10;73.10;;;;;;5132254;27;20353;-69
2023/10/24 00:58:31;;;;;;;;;;;14.10;73.10;;;;;;5097607;28;19964;-69
2023/10/24 01:00:58;;;;;;;;;;;14.10;73.10;;;;;;5115970;28;19920;-68
2023/10/24 01:03:23;;;;;;;;;;;14.10;73.20;;;;;;5131745;27;20070;-69
2023/10/24 01:05:49;;;;;;;;;;;14.10;73.20;;;;;;5131700;27;19923;-69
2023/10/24 01:08:15;;;;;;;;;;;14.10;73.10;;;;;;5115786;28;19950;-69
2023/10/24 01:10:40;;;;;;;;;;;14.10;73.20;;;;;;5097482;28;19920;-69
2023/10/24 01:13:06;;;;;;;;;;;14.10;73.20;;;;;;5097702;28;19984;-69
2023/10/24 01:15:33;;;;;;;;;;;14.10;73.20;;;;;;5131849;27;19965;-69
2023/10/24 01:17:59;;;;;;;;;;;14.10;73.30;;;;;;5097202;28;20379;-69
2023/10/24 01:20:24;;;;;;;;;;;14.10;73.30;;;;;;5097464;28;20007;-70
2023/10/24 01:22:50;;;;;;;;;;;14.10;73.30;;;;;;5097205;28;19950;-69
2023/10/24 01:25:15;;;;;;;;;;;14.10;73.30;;;;;;5097154;28;20014;-69
2023/10/24 01:27:42;;;;;;;;;;;14.10;73.30;;;;;;5115616;28;19919;-69
2023/10/24 01:30:09;;;;;;;;;;;14.10;73.30;;;;;;5097063;28;19919;-69
2023/10/24 01:32:35;;;;;;;;;;;14.10;73.30;;;;;;5115941;28;19920;-70
2023/10/24 01:35:00;;;;;;;;;;;14.10;73.40;;;;;;5097239;28;20010;-69
2023/10/24 01:37:25;;;;;;;;;;;14.10;73.40;;;;;;5096997;28;20363;-69
2023/10/24 01:39:51;;;;;;;;;;;14.10;73.40;;;;;;5115148;28;19920;-69
2023/10/24 01:42:17;;;;;;;;;;;14.10;73.40;;;;;;5096725;28;19976;-69
2023/10/24 01:44:42;;;;;;;;;;;14.10;73.40;;;;;;5096767;28;20290;-69
2023/10/24 01:47:07;;;;;;;;;;;14.10;73.40;;;;;;5097069;28;19927;-70
2023/10/24 01:49:33;;;;;;;;;;;14.10;73.50;;;;;;5096648;28;20346;-69
2023/10/24 01:51:58;;;;;;;;;;;14.10;73.50;;;;;;5114463;28;19924;-69
2023/10/24 01:54:24;;;;;;;;;;;14.10;73.50;;;;;;5097005;28;20295;-70
2023/10/24 01:56:49;;;;;;;;;;;14.10;73.50;;;;;;5096530;28;19951;-69
2023/10/24 01:59:15;;;;;;;;;;;14.10;73.60;;;;;;5096889;28;19968;-69
2023/10/24 02:01:41;;;;;;;;;;;14.10;73.50;;;;;;5096523;28;19920;-70
2023/10/24 02:04:06;;;;;;;;;;;14.10;73.60;;;;;;5096361;28;19923;-69
2023/10/24 02:06:32;;;;;;;;;;;14.10;73.60;;;;;;5096333;28;19923;-70
2023/10/24 02:08:57;;;;;;;;;;;14.10;73.70;;;;;;5096356;28;19972;-69
2023/10/24 02:11:23;;;;;;;;;;;14.10;73.70;;;;;;5114688;28;19930;-69
2023/10/24 02:13:48;;;;;;;;;;;14.10;73.70;;;;;;5096259;28;19927;-69
2023/10/24 02:16:14;;;;;;;;;;;14.10;73.80;;;;;;5096105;28;20023;-70
2023/10/24 02:18:39;;;;;;;;;;;14.10;73.80;;;;;;5096537;28;19920;-70
2023/10/24 02:21:06;;;;;;;;;;;14.10;73.80;;;;;;5114315;28;20375;-70
2023/10/24 02:23:32;;;;;;;;;;;14.10;73.80;;;;;;5096143;28;20325;-70
2023/10/24 02:25:57;;;;;;;;;;;14.10;73.80;;;;;;5095945;28;19920;-70
2023/10/24 02:28:23;;;;;;;;;;;14.10;73.80;;;;;;5096279;28;19973;-69
2023/10/24 02:30:48;;;;;;;;;;;14.10;73.90;;;;;;5095890;28;20264;-70
2023/10/24 02:33:14;;;;;;;;;;;14.10;73.80;;;;;;5130341;27;19967;-69
2023/10/24 02:35:39;;;;;;;;;;;14.10;73.90;;;;;;5114148;28;20343;-69
2023/10/24 02:38:06;;;;;;;;;;;14.10;74.60;;;;;;5113937;28;19927;-69
2023/10/24 02:40:31;;;;;;;;;;;14.10;73.90;;;;;;5114168;28;19919;-70
2023/10/24 02:42:57;;;;;;;;;;;14.10;73.90;;;;;;5113498;28;20363;-69
2023/10/24 02:45:23;;;;;;;;;;;14.10;73.90;;;;;;5096016;28;20014;-70
2023/10/24 02:47:49;;;;;;;;;;;14.10;73.90;;;;;;5095843;28;19919;-69
2023/10/24 02:50:14;;;;;;;;;;;14.10;73.90;;;;;;5095585;28;19920;-69
2023/10/24 02:52:40;;;;;;;;;;;14.10;73.90;;;;;;5129478;27;19941;-69
2023/10/24 02:55:05;;;;;;;;;;;14.10;73.80;;;;;;5095583;28;19924;-69
2023/10/24 02:57:31;;;;;;;;;;;14.20;74.00;;;;;;5129482;27;19963;-69
2023/10/24 02:59:56;;;;;;;;;;;14.10;73.90;;;;;;5129895;27;19919;-69
2023/10/24 03:02:22;;;;;;;;;;;14.10;73.90;;;;;;5113831;28;19963;-69
2023/10/24 03:04:47;;;;;;;;;;;14.10;73.80;;;;;;5094518;28;19920;-69
2023/10/24 03:07:13;;;;;;;;;;;14.10;73.80;;;;;;5129670;27;20010;-69
2023/10/24 03:09:38;;;;;;;;;;;14.10;73.80;;;;;;5113439;28;19924;-70
2023/10/24 03:12:09;;;;;;;;;;;14.10;73.70;;;;;;5113355;28;19920;-70
2023/10/24 03:14:35;;;;;;;;;;;14.10;73.80;;;;;;5095477;28;19927;-70
2023/10/24 03:17:00;;;;;;;;;;;14.10;73.70;;;;;;5095048;28;19984;-70
2023/10/24 03:19:28;;;;;;;;;;;14.10;73.70;;;;;;5095030;28;19920;-71
2023/10/24 03:21:54;;;;;;;;;;;14.10;73.70;;;;;;5095249;28;20019;-70
2023/10/24 03:24:19;;;;;;;;;;;14.10;73.70;;;;;;5112985;28;20010;-70
2023/10/24 03:26:45;;;;;;;;;;;14.10;73.70;;;;;;5094938;28;19945;-69
2023/10/24 03:29:10;;;;;;;;;;;14.10;73.70;;;;;;5095039;28;19920;-70
2023/10/24 03:31:36;;;;;;;;;;;14.10;73.70;;;;;;5113408;28;20370;-70
2023/10/24 03:34:02;;;;;;;;;;;14.10;73.70;;;;;;5095060;28;19963;-69
2023/10/24 03:36:27;;;;;;;;;;;14.10;73.70;;;;;;5113068;28;20332;-69
2023/10/24 03:38:53;;;;;;;;;;;14.20;73.70;;;;;;5112904;28;19927;-70
2023/10/24 03:41:18;;;;;;;;;;;14.10;73.60;;;;;;5112821;28;19923;-69
2023/10/24 03:43:48;;;;;;;;;;;14.20;73.70;;;;;;5094614;28;20511;-69
2023/10/24 03:46:14;;;;;;;;;;;14.20;73.70;;;;;;5113252;28;19924;-69
2023/10/24 03:48:39;;;;;;;;;;;14.20;73.70;;;;;;5094678;28;19919;-69
2023/10/24 03:51:05;;;;;;;;;;;14.10;73.60;;;;;;5112880;28;19927;-69
2023/10/24 03:53:30;;;;;;;;;;;14.10;73.60;;;;;;5094741;28;20275;-69
2023/10/24 03:55:58;;;;;;;;;;;14.10;73.60;;;;;;5094561;28;19967;-69
2023/10/24 03:58:24;;;;;;;;;;;14.20;73.60;;;;;;5094857;28;19923;-69
2023/10/24 04:00:49;;;;;;;;;;;14.10;73.60;;;;;;5112717;28;19964;-69
2023/10/24 04:03:15;;;;;;;;;;;14.10;73.60;;;;;;5094575;28;19971;-69
2023/10/24 04:05:40;;;;;;;;;;;14.10;73.50;;;;;;5094472;28;19944;-69
2023/10/24 04:08:06;;;;;;;;;;;14.10;73.60;;;;;;5094737;28;19920;-70
2023/10/24 04:10:34;;;;;;;;;;;14.20;73.60;;;;;;5094597;28;20011;-70
2023/10/24 04:12:59;;;;;;;;;;;14.20;73.60;;;;;;5112934;28;20256;-69
2023/10/24 04:15:25;;;;;;;;;;;14.10;73.60;;;;;;5114324;28;20451;-70
2023/10/24 04:17:54;;;;;;;;;;;14.20;73.60;;;;;;5098899;28;19927;-70
2023/10/24 04:20:19;;;;;;;;;;;14.10;73.60;;;;;;5132892;27;19921;-70
2023/10/24 04:22:46;;;;;;;;;;;14.10;73.50;;;;;;5098375;28;19934;-70
2023/10/24 04:25:12;;;;;;;;;;;14.20;73.60;;;;;;5116498;28;20064;-69
2023/10/24 04:27:38;;;;;;;;;;;14.20;73.60;;;;;;5098645;28;20354;-69
2023/10/24 04:30:05;;;;;;;;;;;14.20;73.50;;;;;;5116453;28;19930;-70
2023/10/24 04:32:30;;;;;;;;;;;14.20;73.60;;;;;;5132720;27;19946;-70
2023/10/24 04:34:56;;;;;;;;;;;14.20;73.50;;;;;;5116809;28;19928;-70
2023/10/24 04:37:21;;;;;;;;;;;14.20;73.50;;;;;;5098540;28;19970;-69
2023/10/24 04:39:47;;;;;;;;;;;14.20;73.50;;;;;;5098306;28;19965;-69
2023/10/24 04:42:13;;;;;;;;;;;14.20;73.50;;;;;;5131863;27;19923;-69
2023/10/24 04:44:39;;;;;;;;;;;14.20;73.60;;;;;;5132509;27;19930;-70
2023/10/24 04:47:04;;;;;;;;;;;14.20;73.60;;;;;;5116181;28;20370;-70
2023/10/24 04:49:30;;;;;;;;;;;14.20;73.50;;;;;;5098170;28;19927;-70
2023/10/24 04:51:56;;;;;;;;;;;14.20;73.50;;;;;;5116125;28;19994;-70
2023/10/24 04:54:21;;;;;;;;;;;14.20;73.50;;;;;;5097792;28;19968;-70
2023/10/24 04:56:47;;;;;;;;;;;14.20;73.50;;;;;;5131970;27;19919;-70
2023/10/24 04:59:13;;;;;;;;;;;14.20;73.60;;;;;;5131903;27;20264;-70
2023/10/24 05:01:39;;;;;;;;;;;14.20;73.50;;;;;;5116184;28;19920;-70
2023/10/24 05:04:05;;;;;;;;;;;14.20;73.50;;;;;;5131963;27;19920;-70
2023/10/24 05:06:31;;;;;;;;;;;14.20;73.50;;;;;;5097869;28;19924;-70
2023/10/24 05:08:57;;;;;;;;;;;14.20;73.50;;;;;;5115828;28;20297;-70
2023/10/24 05:11:22;;;;;;;;;;;14.20;73.50;;;;;;5131854;27;19919;-70
2023/10/24 05:13:49;;;;;;;;;;;14.20;73.50;;;;;;5097837;28;20363;-69
2023/10/24 05:16:15;;;;;;;;;;;14.20;73.50;;;;;;5097328;28;19931;-70
2023/10/24 05:18:40;;;;;;;;;;;14.20;73.50;;;;;;5097645;28;19927;-70
2023/10/24 05:21:06;;;;;;;;;;;14.20;73.50;;;;;;5097598;28;19919;-71
2023/10/24 05:23:31;;;;;;;;;;;14.20;73.50;;;;;;5097256;28;19920;-70
2023/10/24 05:25:57;;;;;;;;;;;14.20;73.50;;;;;;5115267;28;19974;-70
2023/10/24 05:28:23;;;;;;;;;;;14.20;73.50;;;;;;5096485;28;20363;-70
2023/10/24 05:30:48;;;;;;;;;;;14.20;73.50;;;;;;5097133;28;19920;-70
2023/10/24 05:33:14;;;;;;;;;;;14.20;73.50;;;;;;5097361;28;19924;-70
2023/10/24 05:35:45;;;;;;;;;;;14.20;73.50;;;;;;5097133;28;20394;-70
2023/10/24 05:38:10;;;;;;;;;;;14.20;73.50;;;;;;5096926;28;20360;-70
2023/10/24 05:40:36;;;;;;;;;;;14.20;73.50;;;;;;5096923;28;19926;-70
2023/10/24 05:43:01;;;;;;;;;;;14.20;73.50;;;;;;5096931;28;19930;-70
2023/10/24 05:45:27;;;;;;;;;;;14.20;73.50;;;;;;5097192;28;19927;-70
2023/10/24 05:47:52;;;;;;;;;;;14.20;73.50;;;;;;5115219;28;19926;-70
2023/10/24 05:50:19;;;;;;;;;;;14.20;73.50;;;;;;5097014;28;19919;-70
2023/10/24 05:52:44;;;;;;;;;;;14.20;73.50;;;;;;5096884;28;19924;-70
2023/10/24 05:55:10;;;;;;;;;;;14.20;73.50;;;;;;5096648;28;19927;-69
2023/10/24 05:57:35;;;;;;;;;;;14.20;73.50;;;;;;5096811;28;20014;-70
2023/10/24 06:00:01;;;;;;;;;;;14.20;73.50;;;;;;5096920;28;19942;-70
2023/10/24 06:02:27;;;;;;;;;;;14.20;73.50;;;;;;5096690;28;19927;-70
2023/10/24 06:04:52;;;;;;;;;;;14.20;73.50;;;;;;5096335;28;19926;-70
2023/10/24 06:07:18;;;;;;;;;;;14.20;73.50;;;;;;5096392;28;19919;-71
2023/10/24 06:09:43;;;;;;;;;;;14.20;73.50;;;;;;5114617;28;19923;-70
2023/10/24 06:12:09;;;;;;;;;;;14.20;73.50;;;;;;5114561;28;20010;-70
2023/10/24 06:14:34;;;;;;;;;;;14.20;73.50;;;;;;5096574;28;19923;-70
2023/10/24 06:17:00;;;;;;;;;;;14.20;73.50;;;;;;5096448;28;19920;-70
2023/10/24 06:19:25;;;;;;;;;;;14.20;73.50;;;;;;5096390;28;19927;-71
2023/10/24 06:21:51;;;;;;;;;;;14.20;73.60;;;;;;5096432;28;20279;-70
2023/10/24 06:24:17;;;;;;;;;;;14.20;73.50;;;;;;5130107;27;19931;-70
2023/10/24 06:26:42;;;;;;;;;;;14.20;73.60;;;;;;5096422;28;20364;-70
2023/10/24 06:29:08;;;;;;;;;;;14.20;73.60;;;;;;5130007;27;20386;-70
2023/10/24 06:31:33;;;;;;;;;;;14.20;73.50;;;;;;5130448;27;19923;-71
2023/10/24 06:33:59;;;;;;;;;;;14.20;73.50;;;;;;5095863;28;19919;-70
2023/10/24 06:36:25;;;;;;;;;;;14.20;73.60;;;;;;5096258;28;19926;-70
2023/10/24 06:38:51;;;;;;;;;;;14.20;73.60;;;;;;5113989;28;20344;-70
2023/10/24 06:41:17;;;;;;;;;;;14.20;73.60;;;;;;5095517;28;20023;-70
2023/10/24 06:43:43;;;;;;;;;;;14.20;73.60;;;;;;5095615;28;19971;-70
2023/10/24 06:46:08;;;;;;;;;;;14.20;73.60;;;;;;5129736;27;19920;-70
2023/10/24 06:48:34;;;;;;;;;;;14.20;73.60;;;;;;5130098;27;19963;-70
2023/10/24 06:50:59;;;;;;;;;;;14.20;73.60;;;;;;5130053;27;20383;-70
2023/10/24 06:53:25;;;;;;;;;;;14.20;73.60;;;;;;5129683;27;19927;-70
2023/10/24 06:55:50;;;;;;;;;;;14.20;73.60;;;;;;5095419;28;19926;-70
2023/10/24 06:58:16;;;;;;;;;;;14.20;73.60;;;;;;5113609;28;19920;-70
2023/10/24 07:00:42;;;;;;;;;;;14.20;73.70;;;;;;5129711;27;19966;-70
2023/10/24 07:03:08;;;;;;;;;;;14.20;73.70;;;;;;5095231;28;19944;-70
2023/10/24 07:05:33;;;;;;;;;;;14.20;73.70;;;;;;5113923;28;19930;-70
2023/10/24 07:07:59;;;;;;;;;;;14.20;73.70;;;;;;5095375;28;19920;-70
2023/10/24 07:10:25;;;;;;;;;;;14.20;73.70;;;;;;5095272;28;19920;-70
2023/10/24 07:12:50;;;;;;;;;;;14.20;73.70;;;;;;5095266;28;19927;-70
2023/10/24 07:15:16;;;;;;;;;;;14.20;73.70;;;;;;5095337;28;19924;-70
2023/10/24 07:17:42;;;;;;;;;;;14.20;73.70;;;;;;5129183;27;19970;-70
2023/10/24 07:20:08;;;;;;;;;;;14.20;73.60;;;;;;5113487;28;20256;-71
2023/10/24 07:22:33;;;;;;;;;;;14.20;73.70;;;;;;5095180;28;19928;-70
2023/10/24 07:24:59;;;;;;;;;;;14.20;73.70;;;;;;5095007;28;19927;-70
2023/10/24 07:27:24;;;;;;;;;;;14.20;74.40;;;;;;5113115;28;19920;-70
2023/10/24 07:29:50;;;;;;;;;;;14.20;73.70;;;;;;5094925;28;19920;-70
2023/10/24 07:32:15;;;;;;;;;;;14.20;73.70;;;;;;5113061;28;20407;-70
2023/10/24 07:34:41;;;;;;;;;;;14.20;73.70;;;;;;5095208;28;19920;-70
2023/10/24 07:37:08;;;;;;;;;;;14.20;73.70;;;;;;5094694;28;20003;-70
2023/10/24 07:39:34;;;;;;;;;;;14.20;73.70;;;;;;5094815;28;20010;-70
2023/10/24 07:42:00;;;;;;;;;;;14.20;73.70;;;;;;5094371;28;19924;-70
2023/10/24 07:44:26;;;;;;;;;;;14.20;73.70;;;;;;5094568;28;19930;-70
2023/10/24 07:46:52;;;;;;;;;;;14.20;73.70;;;;;;5112914;28;19969;-70
2023/10/24 07:49:17;;;;;;;;;;;14.30;73.70;;;;;;5094577;28;19919;-70
2023/10/24 07:51:43;;;;;;;;;;;14.20;73.70;;;;;;5094405;28;19920;-70
2023/10/24 07:54:08;;;;;;;;;;;14.20;73.70;;;;;;5094706;28;19920;-70
2023/10/24 07:56:34;;;;;;;;;;;14.20;73.70;;;;;;5112813;28;19924;-70
2023/10/24 07:58:59;;;;;;;;;;;14.20;73.70;;;;;;5094485;28;19926;-70
2023/10/24 08:01:25;;;;;;;;;;;14.20;73.70;;;;;;5094798;28;19919;-70
2023/10/24 08:03:50;;;;;;;;;;;14.20;73.70;;;;;;5094428;28;20394;-70
2023/10/24 08:06:16;;;;;;;;;;;14.30;73.70;;;;;;5094457;28;19927;-70
2023/10/24 08:08:43;;;;;;;;;;;14.20;73.70;;;;;;5094722;28;19919;-70
2023/10/24 08:11:08;;;;;;;;;;;14.20;73.70;;;;;;5094413;28;19920;-70
2023/10/24 08:13:34;;;;;;;;;;;14.20;73.70;;;;;;5094458;28;19923;-70
2023/10/24 08:15:59;;;;;;;;;;;14.20;73.70;;;;;;5094379;28;20018;-70
2023/10/24 08:18:25;;;;;;;;;;;14.20;73.70;;;;;;5112510;28;19920;-70
2023/10/24 08:20:51;;;;;;;;;;;14.20;73.70;;;;;;5094716;28;19924;-71
2023/10/24 08:23:16;;;;;;;;;;;14.20;73.70;;;;;;5094335;28;19930;-70
2023/10/24 08:25:41;;;;;;;;;;;14.20;73.70;;;;;;5094289;28;19920;-70
2023/10/24 08:28:07;;;;;;;;;;;14.30;73.70;;;;;;5094494;28;19980;-70
2023/10/24 08:30:33;;;;;;;;;;;14.20;73.70;;;;;;5094251;28;19919;-70
2023/10/24 08:32:58;;;;;;;;;;;14.20;73.70;;;;;;5094439;28;19986;-70
2023/10/24 08:35:24;;;;;;;;;;;14.20;73.70;;;;;;5112529;28;19920;-70
2023/10/24 08:37:50;;;;;;;;;;;14.20;73.70;;;;;;5112545;28;19955;-70
2023/10/24 08:40:15;;;;;;;;;;;14.30;73.70;;;;;;5112394;28;20390;-70
2023/10/24 08:42:41;;;;;;;;;;;14.30;73.70;;;;;;5128056;28;19988;-70
2023/10/24 08:45:07;;;;;;;;;;;14.20;73.60;;;;;;5112360;28;20431;-70
2023/10/24 08:47:34;;;;;;;;;;;14.20;73.70;;;;;;5094345;28;19926;-69
2023/10/24 08:50:00;;;;;;;;;;;14.30;73.70;;;;;;5128470;28;20312;-69
2023/10/24 08:52:25;;;;;;;;;;;14.30;73.70;;;;;;5094332;28;19919;-70
2023/10/24 08:54:51;;;;;;;;;;;14.20;73.60;;;;;;5094015;28;19919;-69
2023/10/24 08:57:21;;;;;;;;;;;14.30;73.70;;;;;;5112380;28;20290;-69
2023/10/24 08:59:47;;;;;;;;;;;14.20;73.70;;;;;;5112216;28;20286;-70
2023/10/24 09:02:12;;;;;;;;;;;14.20;73.70;;;;;;5095158;28;19926;-69
2023/10/24 09:04:39;;;;;;;;;;;14.30;73.70;;;;;;5116065;28;19924;-70
2023/10/24 09:07:04;;;;;;;;;;;14.20;73.70;;;;;;5097927;28;19927;-70
2023/10/24 09:09:30;;;;;;;;;;;14.30;73.70;;;;;;5115948;28;19920;-70
2023/10/24 09:11:57;;;;;;;;;;;14.30;73.70;;;;;;5131673;27;20442;-70
2023/10/24 09:14:24;;;;;;;;;;;14.20;73.60;;;;;;5097695;28;19927;-70
2023/10/24 09:17:04;;;;;;;;;;;14.30;73.70;;;;;;5097601;28;20030;-70
2023/10/24 09:19:30;;;;;;;;;;;14.30;73.70;;;;;;5115812;28;20336;-70
2023/10/24 09:21:56;;;;;;;;;;;14.30;73.70;;;;;;5115784;28;19973;-70
2023/10/24 09:24:22;;;;;;;;;;;14.30;73.70;;;;;;5097125;28;19930;-70
2023/10/24 09:29:48;;;;;;;;;;;14.30;73.70;;;;;;5144595;27;20366;-70
2023/10/24 09:32:15;;;;;;;;;;;14.30;73.70;;;;;;5129731;28;19924;-71
2023/10/24 09:34:42;;;;;;;;;;;14.30;73.70;;;;;;5129444;28;19940;-70
2023/10/24 09:37:09;;;;;;;;;;;14.30;73.70;;;;;;5129685;28;20064;-70
2023/10/24 09:39:54;;;;;;;;;;;14.30;73.70;;;;;;5129319;28;20403;-70
2023/10/24 09:42:24;;;;;;;;;;;14.30;73.70;;;;;;5129360;27;19980;-70
2023/10/24 09:44:51;;;;;;;;;;;14.30;73.70;;;;;;5129290;27;19920;-70
2023/10/24 09:47:17;;;;;;;;;;;14.30;73.70;;;;;;5129070;28;19919;-70
2023/10/24 09:49:42;;;;;;;;;;;14.30;73.70;;;;;;5129502;27;19920;-70
2023/10/24 09:52:08;;;;;;;;;;;14.30;73.70;;;;;;5129344;28;19920;-70
2023/10/24 09:54:36;;;;;;;;;;;14.30;73.70;;;;;;5129409;28;20375;-70
2023/10/24 09:57:02;;;;;;;;;;;14.30;73.60;;;;;;5128932;28;19979;-70
2023/10/24 09:59:28;;;;;;;;;;;14.30;73.70;;;;;;5129322;28;19967;-70
2023/10/24 10:01:54;;;;;;;;;;;14.30;73.60;;;;;;5129103;28;19973;-70
2023/10/24 10:04:19;;;;;;;;;;;14.30;73.60;;;;;;5129141;28;19919;-70
2023/10/24 10:06:45;;;;;;;;;;;14.30;73.70;;;;;;5128779;28;19943;-70
2023/10/24 10:09:11;;;;;;;;;;;14.30;73.60;;;;;;5130078;27;19923;-71
2023/10/24 10:11:39;;;;;;;;;;;14.30;73.60;;;;;;5128921;27;19959;-70
2023/10/24 10:14:11;;;;;;;;;;;14.30;73.60;;;;;;5130032;27;19934;-70
2023/10/24 10:19:52;;;;;;;;;;;14.30;73.60;;;;;;5144770;27;19911;-71
2023/10/24 10:22:25;;;;;;;;;;;14.40;73.60;;;;;;5129753;28;20250;-71
2023/10/24 10:25:12;;;;;;;;;;;14.30;73.50;;;;;;5129492;28;19998;-70
2023/10/24 10:27:57;;;;;;;;;;;14.30;73.50;;;;;;5129214;28;20367;-70
2023/10/24 10:30:28;;;;;;;;;;;14.30;73.50;;;;;;5130413;28;19927;-71
2023/10/24 10:38:44;;;;;;;;;;;14.40;73.50;;;;;;5144757;27;19912;-70
2023/10/24 10:44:39;;;;;;;;;;;14.40;73.40;;;;;;5144658;27;20381;-70
2023/10/24 10:47:06;;;;;;;;;;;14.40;73.40;;;;;;5129260;28;20370;-70
2023/10/24 10:49:48;;;;;;;;;;;14.40;73.30;;;;;;5129433;28;20004;-71
2023/10/24 10:52:33;;;;;;;;;;;14.40;73.40;;;;;;5129631;28;19927;-70
2023/10/24 10:55:05;;;;;;;;;;;14.50;73.40;;;;;;5129172;28;19927;-70
2023/10/24 10:57:36;;;;;;;;;;;14.40;73.30;;;;;;5129239;28;20361;-70
2023/10/24 11:00:04;;;;;;;;;;;14.50;73.40;;;;;;5130487;27;19920;-70
2023/10/24 11:02:38;;;;;;;;;;;14.50;73.40;;;;;;5129218;28;19923;-70
2023/10/24 11:05:23;;;;;;;;;;;14.50;73.30;;;;;;5129446;28;19920;-70
2023/10/24 11:07:50;;;;;;;;;;;14.50;73.40;;;;;;5128801;28;19919;-71
2023/10/24 11:10:16;;;;;;;;;;;14.50;73.30;;;;;;5130330;27;19926;-71
2023/10/24 11:12:49;;;;;;;;;;;14.50;73.30;;;;;;5129300;28;19920;-70
2023/10/24 11:18:08;;;;;;;;;;;14.50;73.30;;;;;;5144479;27;19919;-71
2023/10/24 11:20:34;;;;;;;;;;;14.50;74.00;;;;;;5129471;28;19919;-71
2023/10/24 11:23:00;;;;;;;;;;;14.40;73.20;;;;;;5129708;28;20018;-71
2023/10/24 11:25:27;;;;;;;;;;;14.50;73.30;;;;;;5129365;28;19924;-71
2023/10/24 11:27:52;;;;;;;;;;;14.40;73.20;;;;;;5129684;28;20403;-70
2023/10/24 11:30:18;;;;;;;;;;;14.50;73.30;;;;;;5129536;28;19970;-70
2023/10/24 11:32:43;;;;;;;;;;;14.50;73.30;;;;;;5129774;28;19926;-71
2023/10/24 11:35:09;;;;;;;;;;;14.50;73.30;;;;;;5129147;28;20410;-70
2023/10/24 11:37:34;;;;;;;;;;;14.50;73.30;;;;;;5129103;28;19924;-70
2023/10/24 11:40:00;;;;;;;;;;;14.40;73.20;;;;;;5129359;28;19926;-70
2023/10/24 11:42:26;;;;;;;;;;;14.50;73.30;;;;;;5129397;28;20100;-70
2023/10/24 11:44:52;;;;;;;;;;;14.50;73.20;;;;;;5129461;28;19920;-70
2023/10/24 11:47:17;;;;;;;;;;;14.50;73.20;;;;;;5130616;27;19927;-70
2023/10/24 11:49:45;;;;;;;;;;;14.50;73.20;;;;;;5128865;28;20405;-70
2023/10/24 11:52:11;;;;;;;;;;;14.50;73.20;;;;;;5130204;27;20359;-70
2023/10/24 11:54:36;;;;;;;;;;;14.50;73.20;;;;;;5129019;28;19972;-70
2023/10/24 11:57:03;;;;;;;;;;;14.50;73.20;;;;;;5128782;28;20437;-70
2023/10/24 11:59:31;;;;;;;;;;;14.50;73.20;;;;;;5128952;28;20019;-70
2023/10/24 12:01:57;;;;;;;;;;;14.50;73.20;;;;;;5129046;28;19931;-70
2023/10/24 12:04:25;;;;;;;;;;;14.50;73.20;;;;;;5128989;28;20366;-70
2023/10/24 12:06:59;;;;;;;;;;;14.50;73.20;;;;;;5128898;28;19926;-70
2023/10/24 12:09:25;;;;;;;;;;;14.50;73.30;;;;;;5130135;27;19920;-70
2023/10/24 12:11:50;;;;;;;;;;;14.50;73.20;;;;;;5128540;28;19930;-70
2023/10/24 12:14:17;;;;;;;;;;;14.50;73.20;;;;;;5128541;28;19923;-70
2023/10/24 12:16:46;;;;;;;;;;;14.50;73.20;;;;;;5129397;27;19930;-71
2023/10/24 12:19:11;;;;;;;;;;;14.50;73.20;;;;;;5128360;28;19926;-71
2023/10/24 12:21:37;;;;;;;;;;;14.50;73.20;;;;;;5128556;28;20026;-71
2023/10/24 12:24:02;;;;;;;;;;;14.50;73.20;;;;;;5128272;28;20290;-71
2023/10/24 12:26:28;;;;;;;;;;;14.50;73.20;;;;;;5128198;28;19926;-70
2023/10/24 12:28:53;;;;;;;;;;;14.60;73.20;;;;;;5116691;28;19924;-70
2023/10/24 12:31:19;;;;;;;;;;;14.50;73.20;;;;;;5114709;28;20367;-70
2023/10/24 12:33:44;;;;;;;;;;;14.50;73.20;;;;;;5115831;28;20014;-71
2023/10/24 12:36:10;;;;;;;;;;;14.60;73.20;;;;;;5114245;28;19973;-70
2023/10/24 12:38:37;;;;;;;;;;;14.60;73.20;;;;;;5114426;28;19919;-70
2023/10/24 12:41:03;;;;;;;;;;;14.50;73.20;;;;;;5114222;28;20014;-70
2023/10/24 12:43:28;;;;;;;;;;;14.50;73.20;;;;;;5114220;28;19926;-70
2023/10/24 12:45:54;;;;;;;;;;;14.50;73.20;;;;;;5114178;28;19919;-70
2023/10/24 12:48:19;;;;;;;;;;;14.60;73.20;;;;;;5114143;28;19931;-70
2023/10/24 12:50:45;;;;;;;;;;;14.50;73.20;;;;;;5114104;28;20291;-70
2023/10/24 12:53:11;;;;;;;;;;;14.60;73.20;;;;;;5113906;28;19923;-70
2023/10/24 12:55:36;;;;;;;;;;;14.60;73.20;;;;;;5115293;28;19924;-70
2023/10/24 12:58:02;;;;;;;;;;;14.60;73.20;;;;;;5113929;28;19919;-71
2023/10/24 13:00:27;;;;;;;;;;;14.60;73.20;;;;;;5114221;28;19927;-70
2023/10/24 13:02:54;;;;;;;;;;;14.60;73.20;;;;;;5114171;28;20374;-70
2023/10/24 13:05:20;;;;;;;;;;;14.60;73.20;;;;;;5115171;28;19920;-70
2023/10/24 13:07:46;;;;;;;;;;;14.60;73.20;;;;;;5114122;28;20348;-70
2023/10/24 13:10:12;;;;;;;;;;;14.60;73.20;;;;;;5115473;28;19972;-70
2023/10/24 13:12:37;;;;;;;;;;;14.60;73.20;;;;;;5113955;28;19920;-71
2023/10/24 13:15:03;;;;;;;;;;;14.60;73.20;;;;;;5113638;28;19920;-70
2023/10/24 13:17:29;;;;;;;;;;;14.60;73.20;;;;;;5113115;28;20406;-71
2023/10/24 13:19:54;;;;;;;;;;;14.60;73.20;;;;;;5114843;28;19973;-71
2023/10/24 13:22:20;;;;;;;;;;;14.60;73.20;;;;;;5113447;28;19919;-70
2023/10/24 13:24:45;;;;;;;;;;;14.60;73.20;;;;;;5113703;28;19959;-70
2023/10/24 13:27:11;;;;;;;;;;;14.60;73.20;;;;;;5113633;28;19920;-70
2023/10/24 13:29:37;;;;;;;;;;;14.60;73.20;;;;;;5114966;28;19924;-71
2023/10/24 13:32:03;;;;;;;;;;;14.60;73.20;;;;;;5113610;28;20359;-70
2023/10/24 13:34:29;;;;;;;;;;;14.60;73.30;;;;;;5113499;28;20290;-70
2023/10/24 13:36:54;;;;;;;;;;;14.60;73.20;;;;;;5114479;28;19931;-70
2023/10/24 13:39:20;;;;;;;;;;;14.60;73.20;;;;;;5112004;28;19927;-71
2023/10/24 13:41:45;;;;;;;;;;;14.60;73.30;;;;;;5113065;28;19946;-70
2023/10/24 13:44:12;;;;;;;;;;;14.60;73.20;;;;;;5113194;28;20006;-70
2023/10/24 13:46:38;;;;;;;;;;;14.60;73.20;;;;;;5113347;28;19920;-71
2023/10/24 13:49:04;;;;;;;;;;;14.60;73.30;;;;;;5112915;28;19919;-70
2023/10/24 13:51:29;;;;;;;;;;;14.60;73.30;;;;;;5112921;28;20012;-70
2023/10/24 13:53:55;;;;;;;;;;;14.60;73.30;;;;;;5113119;28;19919;-70
2023/10/24 13:56:21;;;;;;;;;;;14.60;73.30;;;;;;5112884;28;19924;-70
2023/10/24 13:58:46;;;;;;;;;;;14.60;73.30;;;;;;5112728;28;20447;-70
2023/10/24 14:01:12;;;;;;;;;;;14.60;73.30;;;;;;5114055;28;19927;-70
2023/10/24 14:03:37;;;;;;;;;;;14.60;73.30;;;;;;5113203;28;19920;-70
2023/10/24 14:06:03;;;;;;;;;;;14.60;73.30;;;;;;5112647;28;19920;-70
2023/10/24 14:08:28;;;;;;;;;;;14.60;73.30;;;;;;5112895;28;19988;-70
2023/10/24 14:10:54;;;;;;;;;;;14.60;73.30;;;;;;5113749;28;19919;-69
2023/10/24 14:13:20;;;;;;;;;;;14.60;73.30;;;;;;5112850;28;20308;-70
2023/10/24 14:15:45;;;;;;;;;;;14.60;73.30;;;;;;5112073;28;19985;-71
2023/10/24 14:18:11;;;;;;;;;;;14.60;73.30;;;;;;5112587;28;19977;-71
2023/10/24 14:20:37;;;;;;;;;;;14.60;73.40;;;;;;5112267;28;20302;-71
2023/10/24 14:23:02;;;;;;;;;;;14.60;73.40;;;;;;5112656;28;19924;-71
2023/10/24 14:25:28;;;;;;;;;;;14.60;74.20;;;;;;5112229;28;20370;-70
2023/10/24 14:27:53;;;;;;;;;;;14.60;73.40;;;;;;5112129;28;19920;-70